Time;durP1;ratioP1;P1;durP2;ratioP2;P2;SDS_P1;SDS_P2;PMS_P1;PMS_P2;Temp;Humidity;BMP_temperature;BMP_pressure;BME280_temperature;BME280_humidity;BME280_pressure;Samples;Min_cycle;Max_cycle;Signal;HPM_P1;HPM_P2
2022/03/23 00:00:46;;;;;;;7.90;4.57;;;10.20;46.20;;;;;;4996543;28;20358;-84
2022/03/23 00:03:13;;;;;;;9.23;4.55;;;10.20;46.20;;;;;;5004828;28;20059;-84
2022/03/23 00:05:43;;;;;;;7.80;4.35;;;10.10;46.30;;;;;;4997112;28;20103;-84
2022/03/23 00:08:09;;;;;;;6.95;4.22;;;10.00;46.30;;;;;;4968760;28;20037;-84
2022/03/23 00:10:35;;;;;;;7.57;4.30;;;10.00;46.40;;;;;;4994627;28;20470;-84
2022/03/23 00:13:02;;;;;;;8.15;4.22;;;9.90;46.50;;;;;;4982086;28;20806;-84
2022/03/23 00:15:28;;;;;;;7.57;4.30;;;9.90;46.70;;;;;;4995976;28;20465;-83
2022/03/23 00:17:54;;;;;;;7.93;4.32;;;9.90;46.70;;;;;;4995326;28;20155;-84
2022/03/23 00:20:21;;;;;;;7.72;4.40;;;9.90;46.80;;;;;;4998984;28;20025;-84
2022/03/23 00:22:46;;;;;;;9.07;4.60;;;9.80;46.90;;;;;;4983098;28;21978;-84
2022/03/23 00:25:12;;;;;;;8.63;5.28;;;9.80;47.00;;;;;;4980289;28;20056;-84
2022/03/23 00:27:38;;;;;;;7.38;4.50;;;9.70;47.90;;;;;;4986192;28;20038;-84
2022/03/23 00:30:05;;;;;;;9.70;5.23;;;9.70;47.20;;;;;;4988379;28;20132;-84
2022/03/23 00:32:31;;;;;;;7.57;4.50;;;9.60;47.40;;;;;;4998495;28;20484;-84
2022/03/23 00:34:57;;;;;;;6.93;4.38;;;9.60;47.40;;;;;;4996058;28;20113;-84
2022/03/23 00:37:23;;;;;;;8.00;4.40;;;9.50;47.40;;;;;;5000295;28;20120;-84
2022/03/23 00:39:50;;;;;;;7.77;4.30;;;9.50;47.50;;;;;;4996560;28;20072;-83
2022/03/23 00:42:16;;;;;;;7.93;5.05;;;9.40;47.60;;;;;;4986190;28;20030;-84
2022/03/23 00:44:42;;;;;;;8.48;5.05;;;9.40;47.70;;;;;;4981736;28;20099;-84
2022/03/23 00:47:10;;;;;;;8.10;4.85;;;9.30;47.80;;;;;;4999807;28;20053;-84
2022/03/23 00:49:37;;;;;;;8.65;5.15;;;9.30;47.80;;;;;;4996581;28;20036;-84
2022/03/23 00:52:05;;;;;;;7.67;4.43;;;9.30;48.00;;;;;;5013389;28;20124;-84
2022/03/23 00:54:34;;;;;;;8.98;5.05;;;9.20;47.90;;;;;;4985311;28;20446;-84
2022/03/23 00:57:03;;;;;;;8.20;5.07;;;9.20;48.10;;;;;;4969411;28;20305;-84
2022/03/23 00:59:29;;;;;;;8.93;4.90;;;9.10;48.20;;;;;;4989629;28;20469;-84
2022/03/23 01:01:55;;;;;;;7.13;4.33;;;9.10;48.30;;;;;;4995622;28;20244;-84
2022/03/23 01:04:20;;;;;;;8.73;4.97;;;9.10;48.30;;;;;;4998742;28;20060;-83
2022/03/23 01:06:47;;;;;;;8.20;4.55;;;9.00;48.20;;;;;;5011093;28;20266;-83
2022/03/23 01:09:13;;;;;;;9.70;4.47;;;9.00;48.50;;;;;;4986721;28;20022;-84
2022/03/23 01:11:39;;;;;;;8.40;4.60;;;8.90;48.30;;;;;;4996537;28;20038;-84
2022/03/23 01:14:06;;;;;;;8.48;4.70;;;8.90;48.60;;;;;;4986751;28;20139;-83
2022/03/23 01:16:33;;;;;;;7.97;4.95;;;8.80;48.60;;;;;;4989066;28;20164;-83
2022/03/23 01:18:59;;;;;;;7.93;4.63;;;8.70;48.70;;;;;;5012560;28;20360;-84
2022/03/23 01:21:25;;;;;;;7.80;4.30;;;8.70;48.60;;;;;;4998295;28;20161;-83
2022/03/23 01:23:51;;;;;;;7.50;4.75;;;8.60;48.60;;;;;;4978043;28;20409;-84
2022/03/23 01:26:17;;;;;;;9.25;5.32;;;8.60;48.80;;;;;;4968213;28;20034;-84
2022/03/23 01:28:43;;;;;;;7.47;5.13;;;8.50;48.90;;;;;;4969873;28;20029;-83
2022/03/23 01:31:10;;;;;;;7.90;5.10;;;8.50;49.00;;;;;;4987879;28;20064;-84
2022/03/23 01:33:36;;;;;;;7.75;4.82;;;8.50;49.00;;;;;;4995285;28;20068;-83
2022/03/23 01:36:01;;;;;;;9.10;4.80;;;8.40;49.00;;;;;;4997610;28;20474;-83
2022/03/23 01:38:27;;;;;;;9.17;5.00;;;8.30;49.00;;;;;;5014438;28;20620;-83
2022/03/23 01:40:53;;;;;;;8.25;5.30;;;8.30;49.20;;;;;;4963945;28;20892;-84
2022/03/23 01:43:18;;;;;;;8.37;5.10;;;8.30;49.30;;;;;;4998027;28;20478;-84
2022/03/23 01:45:44;;;;;;;8.48;4.88;;;8.20;49.30;;;;;;4988664;28;20116;-83
2022/03/23 01:48:10;;;;;;;8.20;4.87;;;8.20;49.30;;;;;;4977444;28;20029;-83
2022/03/23 01:50:37;;;;;;;9.23;5.15;;;8.20;49.40;;;;;;5000075;28;20030;-83
2022/03/23 01:53:03;;;;;;;9.90;5.68;;;8.10;49.50;;;;;;5007376;28;20186;-83
2022/03/23 01:55:28;;;;;;;7.60;4.80;;;8.10;49.60;;;;;;4984707;28;20044;-83
2022/03/23 01:57:54;;;;;;;8.40;4.93;;;8.00;49.70;;;;;;4968532;28;20022;-84
2022/03/23 02:00:21;;;;;;;9.48;5.05;;;8.00;49.80;;;;;;4974758;28;20029;-85
2022/03/23 02:02:47;;;;;;;7.17;4.63;;;7.90;50.00;;;;;;5005040;28;20577;-86
2022/03/23 02:05:14;;;;;;;9.18;5.45;;;7.90;49.80;;;;;;4990349;28;20038;-86
2022/03/23 02:07:39;;;;;;;8.77;4.75;;;7.90;50.10;;;;;;4999718;28;20030;-86
2022/03/23 02:10:06;;;;;;;9.33;5.30;;;7.80;50.00;;;;;;4984396;28;20041;-86
2022/03/23 02:12:32;;;;;;;9.68;5.00;;;7.80;50.10;;;;;;4976406;28;20056;-86
2022/03/23 02:15:00;;;;;;;8.90;5.13;;;7.80;50.10;;;;;;5005473;28;20304;-86
2022/03/23 02:17:26;;;;;;;8.98;5.10;;;7.70;50.90;;;;;;5018111;28;20032;-86
2022/03/23 02:19:52;;;;;;;8.45;4.80;;;7.70;50.20;;;;;;4973705;28;20033;-86
2022/03/23 02:22:18;;;;;;;8.73;5.43;;;7.60;50.30;;;;;;5001804;28;20095;-86
2022/03/23 02:24:46;;;;;;;9.20;5.25;;;7.60;50.30;;;;;;4998183;28;20494;-86
2022/03/23 02:27:13;;;;;;;9.10;4.68;;;7.60;50.60;;;;;;4983933;28;20038;-86
2022/03/23 02:29:39;;;;;;;8.75;4.88;;;7.50;50.40;;;;;;4992445;28;20030;-86
2022/03/23 02:32:05;;;;;;;8.93;4.80;;;7.50;50.60;;;;;;4980820;28;20129;-86
2022/03/23 02:34:31;;;;;;;9.57;5.10;;;7.40;50.50;;;;;;4974744;28;20028;-86
2022/03/23 02:37:00;;;;;;;8.80;5.00;;;7.40;50.60;;;;;;4981978;28;20132;-86
2022/03/23 02:39:25;;;;;;;8.25;5.03;;;7.30;50.80;;;;;;4984642;28;20636;-86
2022/03/23 02:41:53;;;;;;;9.07;5.37;;;7.30;50.80;;;;;;4980429;28;20104;-86
2022/03/23 02:44:20;;;;;;;7.75;4.78;;;7.30;50.90;;;;;;4985120;28;20025;-86
2022/03/23 02:46:46;;;;;;;7.90;4.97;;;7.20;50.90;;;;;;4986934;28;20018;-86
2022/03/23 02:49:15;;;;;;;10.90;5.20;;;7.20;51.00;;;;;;5008946;28;20065;-86
2022/03/23 02:51:41;;;;;;;9.18;5.00;;;7.20;51.20;;;;;;5000500;28;20033;-86
2022/03/23 03:02:52;;;;;;;8.00;4.80;;;7.00;51.90;;;;;;5004424;28;20151;-86
2022/03/23 03:05:17;;;;;;;7.90;4.93;;;7.00;51.20;;;;;;4976397;28;20038;-86
2022/03/23 03:10:27;;;;;;;10.07;4.82;;;6.90;51.40;;;;;;5000123;28;20147;-86
2022/03/23 03:12:53;;;;;;;9.40;4.90;;;6.90;51.50;;;;;;5014324;28;20092;-85
2022/03/23 03:15:21;;;;;;;8.23;4.85;;;6.80;51.50;;;;;;4983391;28;20041;-86
2022/03/23 03:17:46;;;;;;;9.27;5.37;;;6.80;51.60;;;;;;4992825;28;20064;-86
2022/03/23 03:20:14;;;;;;;8.68;4.85;;;6.80;51.80;;;;;;4990168;28;20549;-86
2022/03/23 03:22:40;;;;;;;10.65;5.15;;;6.80;51.80;;;;;;5000111;28;20379;-86
2022/03/23 03:25:17;;;;;;;9.50;5.67;;;6.70;51.70;;;;;;4999233;28;20033;-85
2022/03/23 03:27:44;;;;;;;10.55;4.90;;;6.70;52.70;;;;;;5002181;28;20100;-86
2022/03/23 03:30:12;;;;;;;9.43;4.70;;;6.70;51.90;;;;;;5003481;28;20026;-86
2022/03/23 03:32:38;;;;;;;8.27;4.60;;;6.70;52.00;;;;;;4973020;28;20112;-86
2022/03/23 03:35:05;;;;;;;9.35;4.93;;;6.70;52.10;;;;;;5005125;28;20049;-86
2022/03/23 03:37:31;;;;;;;8.17;4.33;;;6.60;52.20;;;;;;4982803;28;20100;-86
2022/03/23 03:39:57;;;;;;;8.02;4.43;;;6.60;52.10;;;;;;5001606;28;20470;-86
2022/03/23 03:42:23;;;;;;;7.55;4.45;;;6.60;52.20;;;;;;4996617;28;20163;-86
2022/03/23 03:44:50;;;;;;;7.70;4.50;;;6.60;52.20;;;;;;4983164;28;20486;-86
2022/03/23 03:47:18;;;;;;;9.95;5.22;;;6.50;52.20;;;;;;4997562;28;20041;-86
2022/03/23 03:49:44;;;;;;;9.38;5.10;;;6.60;52.30;;;;;;4982031;28;20065;-86
2022/03/23 03:52:09;;;;;;;9.05;4.63;;;6.50;52.30;;;;;;4981286;28;20034;-86
2022/03/23 03:54:35;;;;;;;8.13;4.77;;;6.40;52.40;;;;;;4998226;28;20633;-86
2022/03/23 03:57:01;;;;;;;8.38;4.95;;;6.40;52.50;;;;;;4999038;28;20037;-86
2022/03/23 03:59:28;;;;;;;9.35;5.60;;;6.40;52.60;;;;;;4979893;28;20345;-86
2022/03/23 04:01:54;;;;;;;9.77;5.03;;;6.30;52.60;;;;;;4986334;28;20038;-86
2022/03/23 04:04:19;;;;;;;10.02;5.15;;;6.30;52.70;;;;;;4984524;28;20103;-86
2022/03/23 04:06:45;;;;;;;7.50;4.33;;;6.30;52.70;;;;;;5011947;28;20021;-86
2022/03/23 04:09:11;;;;;;;8.52;4.50;;;6.30;52.80;;;;;;5011716;28;20434;-85
2022/03/23 04:11:37;;;;;;;8.70;5.10;;;6.20;52.90;;;;;;4982587;28;20135;-86
2022/03/23 04:14:04;;;;;;;10.45;5.05;;;6.20;53.00;;;;;;5006147;28;20389;-86
2022/03/23 04:16:29;;;;;;;8.02;4.95;;;6.20;53.00;;;;;;4996527;28;20029;-86
2022/03/23 04:18:55;;;;;;;9.88;5.28;;;6.20;53.10;;;;;;4970054;28;20041;-86
2022/03/23 04:21:21;;;;;;;9.93;5.07;;;6.20;53.20;;;;;;4983834;28;20640;-86
2022/03/23 04:23:47;;;;;;;9.70;5.10;;;6.10;53.10;;;;;;5015605;28;20025;-86
2022/03/23 04:26:12;;;;;;;9.97;5.30;;;6.10;53.10;;;;;;4995753;28;20042;-85
2022/03/23 04:28:38;;;;;;;9.75;5.00;;;6.00;53.30;;;;;;4998520;28;20117;-85
2022/03/23 04:31:04;;;;;;;7.60;4.60;;;6.10;53.40;;;;;;4997928;28;20014;-85
2022/03/23 04:33:30;;;;;;;8.98;4.80;;;6.00;53.30;;;;;;4984552;28;20282;-86
2022/03/23 04:35:56;;;;;;;9.45;5.10;;;6.00;53.40;;;;;;4989208;28;20038;-86
2022/03/23 04:38:21;;;;;;;10.13;5.43;;;6.00;53.50;;;;;;4970883;28;20115;-86
2022/03/23 04:40:47;;;;;;;12.80;5.25;;;6.00;53.60;;;;;;4999007;28;20418;-86
2022/03/23 04:43:13;;;;;;;10.00;5.00;;;5.90;53.50;;;;;;4995888;28;20049;-86
2022/03/23 04:45:40;;;;;;;9.73;4.93;;;5.90;53.50;;;;;;5014381;28;20037;-86
2022/03/23 04:48:06;;;;;;;8.70;4.90;;;5.90;53.40;;;;;;4993472;28;20068;-86
2022/03/23 04:50:31;;;;;;;9.50;5.38;;;5.90;53.60;;;;;;4961355;28;22783;-86
2022/03/23 04:52:57;;;;;;;9.80;5.35;;;5.80;53.70;;;;;;4968627;28;20045;-86
2022/03/23 04:55:23;;;;;;;9.67;5.37;;;5.80;53.70;;;;;;4981317;28;20052;-86
2022/03/23 04:57:48;;;;;;;10.60;5.20;;;5.80;53.80;;;;;;5011409;28;20466;-86
2022/03/23 05:00:16;;;;;;;9.23;5.07;;;5.80;53.90;;;;;;4979277;28;20080;-86
2022/03/23 05:02:43;;;;;;;11.93;5.65;;;5.80;53.90;;;;;;5014750;28;20133;-86
2022/03/23 05:05:13;;;;;;;10.55;4.93;;;5.70;54.00;;;;;;4983372;28;20486;-86
2022/03/23 05:07:40;;;;;;;11.20;5.47;;;5.70;54.00;;;;;;4965107;28;20498;-86
2022/03/23 05:10:08;;;;;;;8.47;4.60;;;5.70;54.00;;;;;;4997021;28;20161;-86
2022/03/23 05:12:38;;;;;;;10.98;5.78;;;5.70;54.00;;;;;;4980521;28;20178;-86
2022/03/23 05:15:05;;;;;;;9.25;5.00;;;5.70;54.10;;;;;;4997725;28;20041;-86
2022/03/23 05:17:32;;;;;;;8.88;5.22;;;5.60;54.00;;;;;;5012763;28;20026;-86
2022/03/23 05:19:57;;;;;;;11.65;6.00;;;5.60;54.10;;;;;;4984828;28;20477;-86
2022/03/23 05:22:23;;;;;;;10.00;5.37;;;5.60;54.20;;;;;;4958307;28;20084;-86
2022/03/23 05:24:49;;;;;;;9.87;5.33;;;5.60;54.20;;;;;;4972768;28;20383;-86
2022/03/23 05:27:14;;;;;;;9.02;5.47;;;5.60;54.30;;;;;;5014534;28;20041;-86
2022/03/23 05:29:40;;;;;;;8.03;5.07;;;5.60;54.30;;;;;;5016871;28;20456;-86
2022/03/23 05:32:06;;;;;;;10.85;5.50;;;5.50;54.30;;;;;;4983157;28;20029;-86
2022/03/23 05:34:33;;;;;;;10.70;5.70;;;5.50;54.50;;;;;;4998898;28;20097;-86
2022/03/23 05:36:58;;;;;;;11.88;5.15;;;5.50;54.50;;;;;;5003180;28;20580;-86
2022/03/23 05:39:24;;;;;;;9.93;5.30;;;5.50;54.60;;;;;;4978901;28;20140;-86
2022/03/23 05:41:50;;;;;;;11.32;5.95;;;5.50;54.50;;;;;;5000787;28;20026;-86
2022/03/23 05:44:16;;;;;;;13.40;5.80;;;5.40;54.40;;;;;;4997808;28;20175;-86
2022/03/23 05:46:41;;;;;;;10.68;5.22;;;5.40;54.60;;;;;;4984698;28;20125;-86
2022/03/23 05:49:08;;;;;;;9.77;5.53;;;5.40;54.70;;;;;;5015748;28;20061;-86
2022/03/23 05:51:35;;;;;;;9.13;5.38;;;5.40;54.90;;;;;;5000976;28;20022;-86
2022/03/23 05:54:02;;;;;;;11.13;6.15;;;5.30;54.70;;;;;;4999981;28;20029;-86
2022/03/23 05:56:27;;;;;;;11.10;5.63;;;5.30;54.90;;;;;;5006305;28;20018;-86
2022/03/23 05:58:53;;;;;;;11.23;5.63;;;5.30;55.00;;;;;;5000863;28;20099;-86
2022/03/23 06:01:18;;;;;;;10.38;5.45;;;5.30;55.10;;;;;;4993459;28;20164;-86
2022/03/23 06:03:44;;;;;;;10.63;6.13;;;5.30;55.00;;;;;;4981265;28;20534;-88
2022/03/23 06:06:10;;;;;;;11.68;5.30;;;5.30;55.20;;;;;;4972895;28;20694;-86
2022/03/23 06:08:36;;;;;;;10.37;5.43;;;5.30;55.20;;;;;;4984938;28;20023;-86
2022/03/23 06:11:02;;;;;;;10.80;5.80;;;5.30;55.20;;;;;;4975057;28;20022;-86
2022/03/23 06:13:28;;;;;;;10.98;5.93;;;5.30;55.30;;;;;;4999491;28;20508;-86
2022/03/23 06:15:54;;;;;;;11.03;5.87;;;5.30;55.40;;;;;;4981823;28;20171;-86
2022/03/23 06:18:20;;;;;;;12.40;6.18;;;5.40;55.60;;;;;;5017488;28;20045;-86
2022/03/23 06:20:46;;;;;;;10.20;5.95;;;5.40;55.70;;;;;;5004290;28;20037;-86
2022/03/23 06:23:13;;;;;;;10.40;5.53;;;5.40;55.80;;;;;;4979639;28;20489;-86
2022/03/23 06:25:39;;;;;;;11.03;5.43;;;5.40;55.80;;;;;;4965479;28;1342671;-86
2022/03/23 06:28:04;;;;;;;11.10;6.07;;;5.50;56.00;;;;;;4989951;28;20283;-87
2022/03/23 06:30:30;;;;;;;9.13;5.70;;;5.60;56.70;;;;;;5001386;28;20313;-88
2022/03/23 06:32:56;;;;;;;10.13;5.72;;;5.60;56.10;;;;;;4984140;28;20095;-85
2022/03/23 06:35:22;;;;;;;11.50;6.10;;;5.70;56.20;;;;;;4981574;28;20034;-85
2022/03/23 06:37:48;;;;;;;12.48;6.15;;;5.80;56.50;;;;;;4966817;28;20156;-86
2022/03/23 06:40:13;;;;;;;12.63;6.15;;;5.90;56.50;;;;;;5009781;28;20029;-86
2022/03/23 06:42:39;;;;;;;14.03;6.80;;;6.00;56.60;;;;;;5013023;28;20328;-86
2022/03/23 06:45:05;;;;;;;12.38;6.60;;;6.10;57.30;;;;;;4984286;28;20018;-86
2022/03/23 06:47:31;;;;;;;10.90;5.90;;;6.30;56.80;;;;;;5026655;28;20038;-86
2022/03/23 06:49:56;;;;;;;11.52;6.18;;;6.40;57.00;;;;;;4999217;28;20553;-86
2022/03/23 06:52:22;;;;;;;10.10;5.83;;;6.60;57.50;;;;;;5017694;28;20500;-86
2022/03/23 06:54:49;;;;;;;10.23;6.10;;;6.80;57.60;;;;;;4984610;28;20022;-86
2022/03/23 06:57:15;;;;;;;9.50;5.53;;;7.10;57.70;;;;;;5007739;28;20033;-87
2022/03/23 06:59:40;;;;;;;14.40;6.23;;;7.40;57.50;;;;;;4988815;28;20563;-86
2022/03/23 07:02:08;;;;;;;8.88;5.43;;;7.60;57.30;;;;;;5011151;28;20682;-86
2022/03/23 07:04:34;;;;;;;8.73;5.40;;;7.80;56.90;;;;;;4992710;28;20084;-86
2022/03/23 07:06:59;;;;;;;9.37;5.67;;;8.00;56.70;;;;;;4989921;28;20034;-86
2022/03/23 07:09:31;;;;;;;11.55;6.20;;;8.10;56.50;;;;;;4996833;28;20475;-86
2022/03/23 07:12:01;;;;;;;10.15;5.53;;;8.30;56.60;;;;;;5002907;28;20305;-86
2022/03/23 07:14:29;;;;;;;8.73;5.77;;;8.40;56.70;;;;;;4980402;28;20034;-86
2022/03/23 07:16:54;;;;;;;9.13;6.10;;;8.60;57.10;;;;;;4983755;28;20087;-86
2022/03/23 07:19:20;;;;;;;8.80;5.45;;;8.80;57.30;;;;;;4988638;28;20489;-86
2022/03/23 07:21:46;;;;;;;9.40;6.10;;;9.10;57.40;;;;;;4990591;28;20029;-86
2022/03/23 07:24:11;;;;;;;9.95;7.22;;;9.40;57.50;;;;;;4985399;28;20029;-86
2022/03/23 07:26:37;;;;;;;9.73;6.17;;;9.60;57.30;;;;;;4998302;28;20050;-86
2022/03/23 07:29:03;;;;;;;9.38;5.63;;;9.90;57.20;;;;;;4992216;28;20497;-86
2022/03/23 07:31:29;;;;;;;9.30;5.60;;;10.10;57.10;;;;;;4997169;28;20037;-86
2022/03/23 07:33:54;;;;;;;9.25;5.53;;;10.40;57.30;;;;;;4998142;28;20119;-86
2022/03/23 07:36:20;;;;;;;9.10;5.70;;;10.70;57.70;;;;;;4995890;28;20091;-86
2022/03/23 07:38:46;;;;;;;8.98;5.78;;;11.00;58.10;;;;;;4992676;28;20433;-86
2022/03/23 07:41:11;;;;;;;11.20;6.23;;;11.50;58.60;;;;;;4975430;28;20030;-87
2022/03/23 07:43:37;;;;;;;10.15;6.60;;;11.90;59.10;;;;;;5008070;28;20044;-86
2022/03/23 07:46:02;;;;;;;11.57;6.93;;;12.50;59.50;;;;;;4976746;28;20707;-87
2022/03/23 07:48:28;;;;;;;10.10;6.40;;;13.10;59.60;;;;;;5015915;28;20025;-87
2022/03/23 07:50:54;;;;;;;11.25;6.70;;;13.60;59.40;;;;;;4976390;28;20417;-87
2022/03/23 07:53:19;;;;;;;10.33;6.63;;;14.20;59.00;;;;;;5013131;28;20497;-87
2022/03/23 07:55:45;;;;;;;11.43;7.30;;;14.70;58.50;;;;;;4985236;28;20926;-87
2022/03/23 07:58:11;;;;;;;11.70;7.07;;;15.20;58.00;;;;;;4978092;28;20124;-87
2022/03/23 08:00:38;;;;;;;11.10;7.33;;;15.70;57.50;;;;;;4981382;28;20033;-87
2022/03/23 08:03:05;;;;;;;13.55;7.88;;;16.20;57.00;;;;;;4979570;28;20030;-87
2022/03/23 08:05:31;;;;;;;13.05;7.97;;;16.70;56.50;;;;;;5007820;28;20078;-87
2022/03/23 08:07:57;;;;;;;13.00;7.20;;;17.20;56.10;;;;;;4982850;28;20026;-87
2022/03/23 08:10:23;;;;;;;11.67;7.63;;;17.60;55.60;;;;;;4996723;28;20029;-87
2022/03/23 08:12:51;;;;;;;12.85;7.97;;;18.00;55.00;;;;;;5001271;28;20116;-87
2022/03/23 08:15:16;;;;;;;12.95;8.18;;;18.40;54.50;;;;;;4991277;28;20074;-87
2022/03/23 08:17:42;;;;;;;14.07;8.25;;;18.80;54.00;;;;;;4995095;28;20494;-87
2022/03/23 08:22:54;;;;;;;12.95;8.13;;;19.70;52.90;;;;;;5018434;28;20494;-87
2022/03/23 08:25:19;;;;;;;13.73;8.25;;;20.10;52.50;;;;;;5001948;28;20022;-87
2022/03/23 08:27:45;;;;;;;12.63;8.30;;;20.50;52.00;;;;;;4996456;28;20105;-87
2022/03/23 08:30:11;;;;;;;13.52;8.52;;;20.80;51.40;;;;;;4977356;28;20056;-87
2022/03/23 08:32:37;;;;;;;13.45;9.00;;;21.10;50.80;;;;;;4978352;28;20037;-87
2022/03/23 08:35:03;;;;;;;13.80;8.63;;;21.50;50.10;;;;;;4980568;28;20441;-87
2022/03/23 08:37:29;;;;;;;13.23;8.13;;;21.80;49.40;;;;;;4999819;28;20128;-87
2022/03/23 08:39:56;;;;;;;12.15;8.43;;;22.10;49.00;;;;;;5001660;28;20042;-87
2022/03/23 08:42:21;;;;;;;12.48;8.88;;;22.50;48.50;;;;;;4981648;28;20791;-87
2022/03/23 08:44:47;;;;;;;12.03;8.93;;;22.70;48.00;;;;;;4986774;28;20064;-87
2022/03/23 08:47:13;;;;;;;11.32;8.30;;;23.10;47.40;;;;;;4969119;28;20022;-87
2022/03/23 08:49:39;;;;;;;12.10;8.27;;;23.40;47.20;;;;;;5002460;28;20037;-87
2022/03/23 08:52:06;;;;;;;12.48;7.88;;;23.60;46.30;;;;;;4972207;28;20033;-87
2022/03/23 08:54:32;;;;;;;11.98;8.43;;;23.90;46.40;;;;;;4998686;28;20022;-87
2022/03/23 08:56:58;;;;;;;13.47;8.57;;;24.20;45.20;;;;;;4998000;28;20037;-87
2022/03/23 08:59:23;;;;;;;12.05;8.45;;;24.50;44.80;;;;;;4965555;28;20089;-87
2022/03/23 09:01:49;;;;;;;12.15;8.38;;;24.70;44.30;;;;;;4988153;28;20446;-87
2022/03/23 09:04:15;;;;;;;14.03;8.60;;;25.00;43.60;;;;;;4983875;28;20343;-87
2022/03/23 09:06:41;;;;;;;11.73;8.50;;;25.20;43.20;;;;;;5001266;28;20490;-87
2022/03/23 09:09:06;;;;;;;12.47;8.27;;;25.50;43.20;;;;;;5008213;28;20034;-87
2022/03/23 09:11:32;;;;;;;11.90;8.50;;;25.80;43.10;;;;;;4990667;28;20379;-87
2022/03/23 09:13:58;;;;;;;12.73;9.10;;;26.00;42.50;;;;;;5001704;28;20029;-87
2022/03/23 09:16:24;;;;;;;12.98;8.82;;;26.40;42.00;;;;;;4961544;28;21471;-87
2022/03/23 09:18:50;;;;;;;12.55;8.52;;;26.60;41.50;;;;;;5002811;28;20110;-87
2022/03/23 09:21:16;;;;;;;11.52;8.57;;;26.90;41.20;;;;;;4994448;28;20037;-87
2022/03/23 09:23:43;;;;;;;10.83;8.17;;;27.10;40.60;;;;;;5011473;28;20441;-87
2022/03/23 09:26:10;;;;;;;16.25;8.85;;;27.30;40.40;;;;;;4976962;28;20042;-87
2022/03/23 09:28:36;;;;;;;11.85;9.00;;;27.50;40.00;;;;;;5003754;28;20102;-87
2022/03/23 09:31:01;;;;;;;12.60;9.13;;;27.80;39.60;;;;;;4949479;28;20033;-87
2022/03/23 09:33:28;;;;;;;12.73;9.10;;;28.00;38.90;;;;;;4991931;28;20286;-87
2022/03/23 09:35:54;;;;;;;11.27;8.52;;;28.20;38.10;;;;;;4991407;28;20034;-87
2022/03/23 09:38:19;;;;;;;14.10;9.73;;;28.40;37.60;;;;;;5010233;28;20104;-87
2022/03/23 09:40:51;;;;;;;10.67;7.73;;;28.60;37.00;;;;;;5015480;28;20026;-87
2022/03/23 09:43:21;;;;;;;12.23;9.20;;;28.80;36.10;;;;;;5011040;28;20073;-87
2022/03/23 09:45:47;;;;;;;11.60;8.68;;;28.90;35.40;;;;;;4965996;28;20397;-87
2022/03/23 09:48:16;;;;;;;12.07;8.65;;;29.00;35.90;;;;;;4991444;28;21637;-87
2022/03/23 09:50:48;;;;;;;11.93;9.03;;;29.20;35.50;;;;;;4978495;28;20026;-87
2022/03/23 09:53:14;;;;;;;12.63;9.07;;;29.30;34.40;;;;;;4989101;28;20108;-87
2022/03/23 09:55:42;;;;;;;11.73;8.35;;;29.50;35.00;;;;;;5000627;28;20377;-87
2022/03/23 09:58:09;;;;;;;12.15;8.77;;;29.70;34.50;;;;;;4993491;28;20275;-87
2022/03/23 10:00:44;;;;;;;12.75;9.18;;;29.80;34.00;;;;;;4998287;28;20038;-87
2022/03/23 10:03:30;;;;;;;12.87;8.57;;;29.90;31.90;;;;;;4978875;28;20038;-87
2022/03/23 10:06:38;;;;;;;12.77;8.73;;;30.10;33.40;;;;;;4983408;28;20048;-87
2022/03/23 10:09:44;;;;;;;11.00;8.13;;;30.30;30.60;;;;;;4992641;28;20278;-87
2022/03/23 10:12:27;;;;;;;10.00;7.55;;;30.50;30.70;;;;;;4998211;28;20624;-87
2022/03/23 10:15:31;;;;;;;11.77;8.55;;;30.80;30.80;;;;;;4996174;28;20100;-87
2022/03/23 10:18:15;;;;;;;11.10;7.40;;;31.00;30.00;;;;;;4979233;28;20237;-87
2022/03/23 10:20:41;;;;;;;10.65;7.43;;;31.20;29.70;;;;;;4995784;28;20029;-87
2022/03/23 10:23:07;;;;;;;9.95;7.82;;;31.40;31.30;;;;;;5004277;28;20037;-87
2022/03/23 10:25:33;;;;;;;11.83;8.60;;;31.60;31.00;;;;;;4995797;28;20096;-87
2022/03/23 10:27:58;;;;;;;10.13;8.48;;;31.80;30.80;;;;;;4999767;28;20489;-87
2022/03/23 10:30:34;;;;;;;10.95;8.60;;;32.00;30.30;;;;;;5016616;28;20026;-87
2022/03/23 10:33:00;;;;;;;11.13;9.30;;;32.20;28.40;;;;;;4984272;28;20049;-87
2022/03/23 10:35:40;;;;;;;11.73;8.93;;;32.40;29.20;;;;;;4973725;28;20014;-87
2022/03/23 10:38:36;;;;;;;11.52;9.18;;;32.60;27.60;;;;;;5000933;28;20029;-87
2022/03/23 10:41:09;;;;;;;14.00;9.00;;;32.80;28.10;;;;;;4980652;28;20382;-87
2022/03/23 10:43:37;;;;;;;10.43;8.73;;;32.90;27.00;;;;;;4998672;28;20422;-87
2022/03/23 10:46:11;;;;;;;12.93;8.45;;;33.00;27.90;;;;;;4984041;28;20538;-87
2022/03/23 10:48:48;;;;;;;9.20;7.47;;;33.20;27.20;;;;;;4974364;28;20057;-87
2022/03/23 10:51:24;;;;;;;9.93;7.95;;;33.20;27.60;;;;;;4990575;28;20434;-86
2022/03/23 10:53:49;;;;;;;10.43;7.82;;;33.30;27.40;;;;;;4992378;28;20034;-86
2022/03/23 10:56:16;;;;;;;8.87;7.63;;;33.50;27.30;;;;;;4993675;28;20116;-86
2022/03/23 10:58:41;;;;;;;10.10;7.78;;;33.60;26.70;;;;;;4977512;28;20048;-87
2022/03/23 11:01:09;;;;;;;7.80;6.83;;;33.70;26.30;;;;;;4966851;28;20041;-87
2022/03/23 11:03:39;;;;;;;13.13;7.57;;;33.80;26.40;;;;;;4971230;28;20033;-87
2022/03/23 11:06:07;;;;;;;9.80;7.43;;;33.90;25.90;;;;;;4998756;28;20037;-86
2022/03/23 11:08:33;;;;;;;10.07;8.10;;;33.90;25.60;;;;;;4988654;28;20498;-86
2022/03/23 11:16:49;;;;;;;10.45;7.95;;;34.00;23.70;;;;;;5000330;28;20038;-86
2022/03/23 11:19:26;;;;;;;10.27;8.27;;;33.90;24.20;;;;;;4993702;28;20025;-86
2022/03/23 11:22:12;;;;;;;11.35;8.38;;;33.90;22.80;;;;;;5004756;28;20048;-86
2022/03/23 11:24:47;;;;;;;9.37;7.47;;;33.90;23.20;;;;;;4985549;28;20484;-86
2022/03/23 11:27:19;;;;;;;10.25;8.10;;;33.90;23.50;;;;;;4995134;28;20502;-86
2022/03/23 11:29:47;;;;;;;10.00;7.72;;;33.90;23.40;;;;;;5012391;28;20681;-86
2022/03/23 11:32:28;;;;;;;9.30;7.70;;;33.90;24.00;;;;;;5000206;28;20030;-86
2022/03/23 11:34:56;;;;;;;10.65;7.85;;;33.90;23.40;;;;;;4981213;28;20250;-86
2022/03/23 11:37:23;;;;;;;9.10;7.57;;;33.90;24.40;;;;;;5001208;28;20022;-86
2022/03/23 11:39:51;;;;;;;8.88;6.78;;;34.00;23.90;;;;;;4970290;28;20564;-85
2022/03/23 11:42:19;;;;;;;7.95;6.70;;;34.20;23.70;;;;;;4987142;28;20034;-86
2022/03/23 11:44:46;;;;;;;11.32;7.88;;;34.30;23.90;;;;;;5019571;28;20066;-86
2022/03/23 11:47:42;;;;;;;8.68;6.95;;;34.50;23.80;;;;;;4988474;28;20038;-86
2022/03/23 11:50:16;;;;;;;9.87;7.27;;;34.80;22.80;;;;;;4958266;28;20466;-86
2022/03/23 11:53:03;;;;;;;9.57;7.95;;;35.10;23.20;;;;;;4990005;28;20621;-86
2022/03/23 11:55:42;;;;;;;9.88;8.07;;;35.30;22.90;;;;;;4984470;28;20830;-86
2022/03/23 11:58:21;;;;;;;9.50;7.60;;;35.40;22.40;;;;;;4999145;28;20133;-86
2022/03/23 12:00:50;;;;;;;10.90;8.10;;;35.40;22.00;;;;;;4994169;28;20112;-86
2022/03/23 12:03:41;;;;;;;9.67;7.47;;;35.50;22.70;;;;;;4971303;28;20030;-86
2022/03/23 12:06:19;;;;;;;9.40;7.40;;;35.60;21.70;;;;;;4996634;28;20092;-86
2022/03/23 12:08:57;;;;;;;9.25;7.85;;;35.80;22.00;;;;;;5013708;28;20622;-86
2022/03/23 12:11:48;;;;;;;10.25;8.00;;;36.00;21.70;;;;;;4990182;28;20426;-86
2022/03/23 12:14:21;;;;;;;9.60;7.93;;;36.10;21.60;;;;;;4976331;28;20030;-86
2022/03/23 12:16:50;;;;;;;9.60;7.67;;;36.20;21.60;;;;;;4967366;28;20485;-86
2022/03/23 12:19:18;;;;;;;11.43;8.18;;;36.20;22.50;;;;;;4995693;28;20092;-86
2022/03/23 12:22:06;;;;;;;9.30;8.00;;;36.20;21.90;;;;;;4985671;28;20500;-86
2022/03/23 12:24:40;;;;;;;11.15;7.88;;;36.30;20.90;;;;;;5012851;28;20028;-86
2022/03/23 12:27:45;;;;;;;8.50;7.25;;;36.30;21.40;;;;;;4964538;28;20073;-86
2022/03/23 12:30:15;;;;;;;10.30;7.40;;;36.40;20.40;;;;;;5004211;28;20037;-86
2022/03/23 12:32:41;;;;;;;10.82;8.48;;;36.40;21.00;;;;;;4986400;28;20522;-84
2022/03/23 12:35:07;;;;;;;12.70;9.18;;;36.40;21.40;;;;;;4987983;28;20033;-86
2022/03/23 12:37:41;;;;;;;13.20;8.85;;;36.40;21.40;;;;;;4972573;28;20454;-86
2022/03/23 12:40:13;;;;;;;10.47;7.87;;;36.40;21.30;;;;;;4994020;28;20072;-86
2022/03/23 12:42:46;;;;;;;11.38;8.48;;;36.40;21.50;;;;;;4993413;28;20030;-85
2022/03/23 12:45:22;;;;;;;10.90;8.52;;;36.40;20.70;;;;;;5015037;28;20482;-85
2022/03/23 12:47:58;;;;;;;13.45;9.00;;;36.40;20.70;;;;;;4970939;28;20866;-85
2022/03/23 12:59:22;;;;;;;10.35;7.40;;;36.60;21.80;;;;;;5019739;28;20466;-85
2022/03/23 13:01:54;;;;;;;7.78;6.10;;;36.60;20.00;;;;;;5008451;28;20144;-85
2022/03/23 13:04:40;;;;;;;8.50;6.22;;;36.60;19.50;;;;;;4990936;28;20108;-86
2022/03/23 13:07:27;;;;;;;7.63;5.60;;;36.40;18.30;;;;;;4987074;28;20057;-85
2022/03/23 13:09:56;;;;;;;7.70;5.28;;;36.30;19.40;;;;;;4992092;28;20084;-85
2022/03/23 13:12:26;;;;;;;7.68;5.32;;;36.20;19.80;;;;;;4996007;28;20026;-85
2022/03/23 13:14:52;;;;;;;8.27;5.40;;;36.20;20.00;;;;;;5026433;28;20345;-85
2022/03/23 13:17:22;;;;;;;8.05;5.57;;;36.20;20.10;;;;;;4977028;28;20026;-85
2022/03/23 13:19:56;;;;;;;7.20;6.03;;;36.20;20.10;;;;;;4992513;28;20026;-85
2022/03/23 13:22:33;;;;;;;9.05;6.05;;;36.20;19.80;;;;;;4997892;28;20515;-85